sensor_id;sensor_type;location;lat;lon;timestamp;temperature;humidity
13074;DHT22;6603;47.066;15.396;2024-02-21T00:00:56;3.40;1.00
13074;DHT22;6603;47.066;15.396;2024-02-21T00:03:22;3.30;1.00
13074;DHT22;6603;47.066;15.396;2024-02-21T00:05:48;3.50;1.00
13074;DHT22;6603;47.066;15.396;2024-02-21T00:08:14;3.40;1.00
13074;DHT22;6603;47.066;15.396;2024-02-21T00:10:39;3.40;1.00
13074;DHT22;6603;47.066;15.396;2024-02-21T00:13:05;3.50;1.00
13074;DHT22;6603;47.066;15.396;2024-02-21T00:15:31;3.40;1.00
13074;DHT22;6603;47.066;15.396;2024-02-21T00:17:57;3.20;1.00
13074;DHT22;6603;47.066;15.396;2024-02-21T00:20:23;3.40;1.00
13074;DHT22;6603;47.066;15.396;2024-02-21T00:22:51;3.30;1.00
13074;DHT22;6603;47.066;15.396;2024-02-21T00:25:16;3.20;1.00
13074;DHT22;6603;47.066;15.396;2024-02-21T00:27:43;3.20;1.00
13074;DHT22;6603;47.066;15.396;2024-02-21T00:30:09;3.30;1.00
13074;DHT22;6603;47.066;15.396;2024-02-21T00:32:35;3.30;1.00
13074;DHT22;6603;47.066;15.396;2024-02-21T00:35:02;3.40;1.00
13074;DHT22;6603;47.066;15.396;2024-02-21T00:37:27;3.30;1.00
13074;DHT22;6603;47.066;15.396;2024-02-21T00:39:56;3.30;1.00
13074;DHT22;6603;47.066;15.396;2024-02-21T00:42:22;3.20;1.00
13074;DHT22;6603;47.066;15.396;2024-02-21T00:44:48;3.10;1.00
13074;DHT22;6603;47.066;15.396;2024-02-21T00:47:14;3.30;1.00
13074;DHT22;6603;47.066;15.396;2024-02-21T00:49:40;3.30;4.10
13074;DHT22;6603;47.066;15.396;2024-02-21T00:52:06;3.30;1.00
13074;DHT22;6603;47.066;15.396;2024-02-21T00:54:32;3.50;1.00
13074;DHT22;6603;47.066;15.396;2024-02-21T00:56:58;3.60;1.00
13074;DHT22;6603;47.066;15.396;2024-02-21T00:59:24;3.60;1.00
13074;DHT22;6603;47.066;15.396;2024-02-21T01:01:49;3.60;1.00
13074;DHT22;6603;47.066;15.396;2024-02-21T01:04:15;3.60;1.00
13074;DHT22;6603;47.066;15.396;2024-02-21T01:06:41;3.60;1.00
13074;DHT22;6603;47.066;15.396;2024-02-21T01:09:10;3.60;1.00
13074;DHT22;6603;47.066;15.396;2024-02-21T01:11:37;3.60;1.00
13074;DHT22;6603;47.066;15.396;2024-02-21T01:14:02;3.80;1.00
13074;DHT22;6603;47.066;15.396;2024-02-21T01:16:28;3.80;1.00
13074;DHT22;6603;47.066;15.396;2024-02-21T01:18:54;3.70;1.00
13074;DHT22;6603;47.066;15.396;2024-02-21T01:21:20;3.70;1.00
13074;DHT22;6603;47.066;15.396;2024-02-21T01:23:46;3.70;1.00
13074;DHT22;6603;47.066;15.396;2024-02-21T01:26:12;3.80;1.00
13074;DHT22;6603;47.066;15.396;2024-02-21T01:28:40;3.80;1.00
13074;DHT22;6603;47.066;15.396;2024-02-21T01:31:07;3.80;1.00
13074;DHT22;6603;47.066;15.396;2024-02-21T01:33:33;3.70;1.00
13074;DHT22;6603;47.066;15.396;2024-02-21T01:36:02;3.90;1.00
13074;DHT22;6603;47.066;15.396;2024-02-21T01:38:28;3.90;1.00
13074;DHT22;6603;47.066;15.396;2024-02-21T01:40:55;3.90;1.00
13074;DHT22;6603;47.066;15.396;2024-02-21T01:43:22;4.00;1.00
13074;DHT22;6603;47.066;15.396;2024-02-21T01:45:53;3.90;1.00
13074;DHT22;6603;47.066;15.396;2024-02-21T01:48:21;3.90;1.00
13074;DHT22;6603;47.066;15.396;2024-02-21T01:50:48;3.70;1.00
13074;DHT22;6603;47.066;15.396;2024-02-21T01:53:32;3.80;1.00
13074;DHT22;6603;47.066;15.396;2024-02-21T01:56:00;3.90;3.10
13074;DHT22;6603;47.066;15.396;2024-02-21T01:58:27;3.80;1.00
13074;DHT22;6603;47.066;15.396;2024-02-21T02:00:56;4.00;1.00
13074;DHT22;6603;47.066;15.396;2024-02-21T02:03:23;4.10;1.00
13074;DHT22;6603;47.066;15.396;2024-02-21T02:05:51;4.10;14.20
13074;DHT22;6603;47.066;15.396;2024-02-21T02:08:18;4.00;1.00
13074;DHT22;6603;47.066;15.396;2024-02-21T02:10:45;3.80;9.00
13074;DHT22;6603;47.066;15.396;2024-02-21T02:13:12;4.00;5.70
13074;DHT22;6603;47.066;15.396;2024-02-21T02:15:42;4.10;1.00
13074;DHT22;6603;47.066;15.396;2024-02-21T02:18:09;4.10;3.50
13074;DHT22;6603;47.066;15.396;2024-02-21T02:20:36;3.90;1.00
13074;DHT22;6603;47.066;15.396;2024-02-21T02:23:28;3.90;26.70
13074;DHT22;6603;47.066;15.396;2024-02-21T02:25:53;4.00;16.70
13074;DHT22;6603;47.066;15.396;2024-02-21T02:28:20;3.90;1.00
13074;DHT22;6603;47.066;15.396;2024-02-21T02:30:47;4.00;6.20
13074;DHT22;6603;47.066;15.396;2024-02-21T02:33:13;4.10;13.10
13074;DHT22;6603;47.066;15.396;2024-02-21T02:35:39;4.10;1.00
13074;DHT22;6603;47.066;15.396;2024-02-21T02:38:06;4.00;1.00
13074;DHT22;6603;47.066;15.396;2024-02-21T02:40:33;4.00;1.00
13074;DHT22;6603;47.066;15.396;2024-02-21T02:43:00;4.00;3.20
13074;DHT22;6603;47.066;15.396;2024-02-21T02:45:26;3.90;1.00
13074;DHT22;6603;47.066;15.396;2024-02-21T02:47:56;4.00;25.30
13074;DHT22;6603;47.066;15.396;2024-02-21T02:50:26;4.00;1.00
13074;DHT22;6603;47.066;15.396;2024-02-21T02:52:52;4.00;1.00
13074;DHT22;6603;47.066;15.396;2024-02-21T02:55:18;4.00;1.00
13074;DHT22;6603;47.066;15.396;2024-02-21T02:57:44;4.00;1.00
13074;DHT22;6603;47.066;15.396;2024-02-21T03:00:11;4.00;1.00
13074;DHT22;6603;47.066;15.396;2024-02-21T03:02:39;4.20;1.00
13074;DHT22;6603;47.066;15.396;2024-02-21T03:05:26;4.20;1.00
13074;DHT22;6603;47.066;15.396;2024-02-21T03:07:55;4.30;3.10
13074;DHT22;6603;47.066;15.396;2024-02-21T03:10:21;4.40;1.00
13074;DHT22;6603;47.066;15.396;2024-02-21T03:12:47;4.40;1.00
13074;DHT22;6603;47.066;15.396;2024-02-21T03:15:14;4.30;1.00
13074;DHT22;6603;47.066;15.396;2024-02-21T03:17:40;4.20;23.70
13074;DHT22;6603;47.066;15.396;2024-02-21T03:20:07;4.40;1.00
13074;DHT22;6603;47.066;15.396;2024-02-21T03:22:36;4.40;1.00
13074;DHT22;6603;47.066;15.396;2024-02-21T03:25:03;4.30;1.00
13074;DHT22;6603;47.066;15.396;2024-02-21T03:27:29;4.20;1.00
13074;DHT22;6603;47.066;15.396;2024-02-21T03:29:55;4.30;1.00
13074;DHT22;6603;47.066;15.396;2024-02-21T03:32:21;4.40;1.00
13074;DHT22;6603;47.066;15.396;2024-02-21T03:34:47;4.40;1.00
13074;DHT22;6603;47.066;15.396;2024-02-21T03:37:13;4.20;1.00
13074;DHT22;6603;47.066;15.396;2024-02-21T03:39:40;4.30;1.00
13074;DHT22;6603;47.066;15.396;2024-02-21T03:42:06;4.40;28.30
13074;DHT22;6603;47.066;15.396;2024-02-21T03:44:32;4.30;5.50
13074;DHT22;6603;47.066;15.396;2024-02-21T03:47:01;4.30;16.60
13074;DHT22;6603;47.066;15.396;2024-02-21T03:49:27;4.20;15.20
13074;DHT22;6603;47.066;15.396;2024-02-21T03:51:53;4.20;30.20
13074;DHT22;6603;47.066;15.396;2024-02-21T03:54:19;4.30;22.60
13074;DHT22;6603;47.066;15.396;2024-02-21T03:56:45;4.10;11.30
13074;DHT22;6603;47.066;15.396;2024-02-21T03:59:13;4.10;50.60
13074;DHT22;6603;47.066;15.396;2024-02-21T04:01:39;4.00;3.80
13074;DHT22;6603;47.066;15.396;2024-02-21T04:04:05;3.90;1.60
13074;DHT22;6603;47.066;15.396;2024-02-21T04:06:31;4.00;33.40
13074;DHT22;6603;47.066;15.396;2024-02-21T04:08:57;4.10;45.70
13074;DHT22;6603;47.066;15.396;2024-02-21T04:11:23;4.10;9.30
13074;DHT22;6603;47.066;15.396;2024-02-21T04:13:48;3.90;1.00
13074;DHT22;6603;47.066;15.396;2024-02-21T04:16:16;3.90;26.50
13074;DHT22;6603;47.066;15.396;2024-02-21T04:18:43;3.90;48.10
13074;DHT22;6603;47.066;15.396;2024-02-21T04:21:09;3.90;40.30
13074;DHT22;6603;47.066;15.396;2024-02-21T04:23:35;4.00;26.90
13074;DHT22;6603;47.066;15.396;2024-02-21T04:26:01;3.90;19.40
13074;DHT22;6603;47.066;15.396;2024-02-21T04:28:28;3.80;12.30
13074;DHT22;6603;47.066;15.396;2024-02-21T04:30:54;3.70;20.00
13074;DHT22;6603;47.066;15.396;2024-02-21T04:33:20;3.70;32.90
13074;DHT22;6603;47.066;15.396;2024-02-21T04:35:46;3.60;37.90
13074;DHT22;6603;47.066;15.396;2024-02-21T04:38:12;3.80;49.20
13074;DHT22;6603;47.066;15.396;2024-02-21T04:40:37;3.90;54.90
13074;DHT22;6603;47.066;15.396;2024-02-21T04:43:03;3.70;29.40
13074;DHT22;6603;47.066;15.396;2024-02-21T04:45:29;3.40;75.00
13074;DHT22;6603;47.066;15.396;2024-02-21T04:47:55;3.60;87.80
13074;DHT22;6603;47.066;15.396;2024-02-21T04:50:21;3.60;56.50
13074;DHT22;6603;47.066;15.396;2024-02-21T04:52:47;3.60;65.20
13074;DHT22;6603;47.066;15.396;2024-02-21T04:55:13;3.80;64.10
13074;DHT22;6603;47.066;15.396;2024-02-21T04:57:38;3.80;52.90
13074;DHT22;6603;47.066;15.396;2024-02-21T05:00:05;3.80;50.90
13074;DHT22;6603;47.066;15.396;2024-02-21T05:02:31;3.60;59.70
13074;DHT22;6603;47.066;15.396;2024-02-21T05:04:57;3.60;42.20
13074;DHT22;6603;47.066;15.396;2024-02-21T05:07:23;3.20;66.00
13074;DHT22;6603;47.066;15.396;2024-02-21T05:09:49;3.30;80.50
13074;DHT22;6603;47.066;15.396;2024-02-21T05:12:15;3.30;91.10
13074;DHT22;6603;47.066;15.396;2024-02-21T05:14:41;3.50;77.70
13074;DHT22;6603;47.066;15.396;2024-02-21T05:17:06;3.50;63.80
13074;DHT22;6603;47.066;15.396;2024-02-21T05:19:32;3.50;73.70
13074;DHT22;6603;47.066;15.396;2024-02-21T05:22:00;3.50;65.30
13074;DHT22;6603;47.066;15.396;2024-02-21T05:24:25;3.50;60.10
13074;DHT22;6603;47.066;15.396;2024-02-21T05:26:51;3.40;47.90
13074;DHT22;6603;47.066;15.396;2024-02-21T05:29:17;3.30;71.80
13074;DHT22;6603;47.066;15.396;2024-02-21T05:34:19;3.20;95.70
13074;DHT22;6603;47.066;15.396;2024-02-21T05:36:45;3.10;89.40
13074;DHT22;6603;47.066;15.396;2024-02-21T05:39:13;3.20;74.10
13074;DHT22;6603;47.066;15.396;2024-02-21T05:41:38;3.00;93.90
13074;DHT22;6603;47.066;15.396;2024-02-21T05:44:04;3.00;99.00
13074;DHT22;6603;47.066;15.396;2024-02-21T05:46:30;3.00;97.80
13074;DHT22;6603;47.066;15.396;2024-02-21T05:48:56;3.10;87.60
13074;DHT22;6603;47.066;15.396;2024-02-21T05:51:22;2.90;92.00
13074;DHT22;6603;47.066;15.396;2024-02-21T05:53:48;2.90;99.90
13074;DHT22;6603;47.066;15.396;2024-02-21T05:56:14;2.70;81.60
13074;DHT22;6603;47.066;15.396;2024-02-21T05:58:40;2.60;91.10
13074;DHT22;6603;47.066;15.396;2024-02-21T06:01:07;2.80;99.90
13074;DHT22;6603;47.066;15.396;2024-02-21T06:03:34;2.70;99.90
13074;DHT22;6603;47.066;15.396;2024-02-21T06:06:00;2.60;99.90
13074;DHT22;6603;47.066;15.396;2024-02-21T06:08:26;2.80;99.90
13074;DHT22;6603;47.066;15.396;2024-02-21T06:10:52;2.70;96.50
13074;DHT22;6603;47.066;15.396;2024-02-21T06:13:21;2.80;99.90
13074;DHT22;6603;47.066;15.396;2024-02-21T06:15:47;3.00;95.70
13074;DHT22;6603;47.066;15.396;2024-02-21T06:18:13;2.80;87.20
13074;DHT22;6603;47.066;15.396;2024-02-21T06:20:39;2.70;99.90
13074;DHT22;6603;47.066;15.396;2024-02-21T06:23:06;2.70;99.90
13074;DHT22;6603;47.066;15.396;2024-02-21T06:25:32;2.60;99.90
13074;DHT22;6603;47.066;15.396;2024-02-21T06:27:58;2.80;99.90
13074;DHT22;6603;47.066;15.396;2024-02-21T06:30:24;2.80;99.10
13074;DHT22;6603;47.066;15.396;2024-02-21T06:32:49;2.80;99.90
13074;DHT22;6603;47.066;15.396;2024-02-21T06:35:15;2.80;99.90
13074;DHT22;6603;47.066;15.396;2024-02-21T06:37:42;2.80;99.90
13074;DHT22;6603;47.066;15.396;2024-02-21T06:40:11;3.10;99.90
13074;DHT22;6603;47.066;15.396;2024-02-21T06:42:36;3.20;95.80
13074;DHT22;6603;47.066;15.396;2024-02-21T06:45:02;3.20;94.00
13074;DHT22;6603;47.066;15.396;2024-02-21T06:47:28;3.30;92.30
13074;DHT22;6603;47.066;15.396;2024-02-21T06:49:57;3.40;93.40
13074;DHT22;6603;47.066;15.396;2024-02-21T06:52:23;3.50;92.80
13074;DHT22;6603;47.066;15.396;2024-02-21T06:54:50;3.60;62.40
13074;DHT22;6603;47.066;15.396;2024-02-21T06:57:16;3.70;56.00
13074;DHT22;6603;47.066;15.396;2024-02-21T06:59:42;3.70;48.20
13074;DHT22;6603;47.066;15.396;2024-02-21T07:02:08;4.00;72.00
13074;DHT22;6603;47.066;15.396;2024-02-21T07:04:34;4.20;45.60
13074;DHT22;6603;47.066;15.396;2024-02-21T07:07:01;4.30;25.60
13074;DHT22;6603;47.066;15.396;2024-02-21T07:09:27;4.30;8.60
13074;DHT22;6603;47.066;15.396;2024-02-21T07:11:54;4.40;21.30
13074;DHT22;6603;47.066;15.396;2024-02-21T07:14:20;4.40;3.30
13074;DHT22;6603;47.066;15.396;2024-02-21T07:16:45;4.40;1.00
13074;DHT22;6603;47.066;15.396;2024-02-21T07:19:11;4.40;1.00
13074;DHT22;6603;47.066;15.396;2024-02-21T07:21:37;4.40;1.00
13074;DHT22;6603;47.066;15.396;2024-02-21T07:24:08;4.40;1.00
13074;DHT22;6603;47.066;15.396;2024-02-21T07:26:34;4.40;1.00
13074;DHT22;6603;47.066;15.396;2024-02-21T07:29:00;4.50;1.00
13074;DHT22;6603;47.066;15.396;2024-02-21T07:31:26;4.70;1.00
13074;DHT22;6603;47.066;15.396;2024-02-21T07:33:52;4.90;1.00
13074;DHT22;6603;47.066;15.396;2024-02-21T07:36:29;4.80;1.00
13074;DHT22;6603;47.066;15.396;2024-02-21T07:38:56;5.00;1.00
13074;DHT22;6603;47.066;15.396;2024-02-21T07:41:22;5.10;1.00
13074;DHT22;6603;47.066;15.396;2024-02-21T07:43:49;5.30;1.00
13074;DHT22;6603;47.066;15.396;2024-02-21T07:46:15;5.30;1.00
13074;DHT22;6603;47.066;15.396;2024-02-21T07:48:41;5.30;1.00
13074;DHT22;6603;47.066;15.396;2024-02-21T07:51:07;5.40;1.00
13074;DHT22;6603;47.066;15.396;2024-02-21T07:53:32;5.50;1.00
13074;DHT22;6603;47.066;15.396;2024-02-21T07:55:58;5.70;1.00
13074;DHT22;6603;47.066;15.396;2024-02-21T07:58:25;5.90;1.00
13074;DHT22;6603;47.066;15.396;2024-02-21T08:00:51;6.00;1.00
13074;DHT22;6603;47.066;15.396;2024-02-21T08:03:17;6.00;1.00
13074;DHT22;6603;47.066;15.396;2024-02-21T08:05:43;6.20;1.00
13074;DHT22;6603;47.066;15.396;2024-02-21T08:08:09;6.40;1.00
13074;DHT22;6603;47.066;15.396;2024-02-21T08:10:35;6.40;1.00
13074;DHT22;6603;47.066;15.396;2024-02-21T08:13:01;6.50;1.00
13074;DHT22;6603;47.066;15.396;2024-02-21T08:15:27;6.60;99.90
13074;DHT22;6603;47.066;15.396;2024-02-21T08:17:58;6.60;99.90
13074;DHT22;6603;47.066;15.396;2024-02-21T08:20:27;6.70;1.00
13074;DHT22;6603;47.066;15.396;2024-02-21T08:22:53;6.70;1.00
13074;DHT22;6603;47.066;15.396;2024-02-21T08:25:19;6.70;1.00
13074;DHT22;6603;47.066;15.396;2024-02-21T08:27:45;6.60;1.00
13074;DHT22;6603;47.066;15.396;2024-02-21T08:30:11;6.60;1.00
13074;DHT22;6603;47.066;15.396;2024-02-21T08:32:37;6.60;1.00
13074;DHT22;6603;47.066;15.396;2024-02-21T08:35:04;6.70;1.00
13074;DHT22;6603;47.066;15.396;2024-02-21T08:37:31;6.60;1.00
13074;DHT22;6603;47.066;15.396;2024-02-21T08:39:57;6.60;1.00
13074;DHT22;6603;47.066;15.396;2024-02-21T08:42:23;6.60;99.90
13074;DHT22;6603;47.066;15.396;2024-02-21T08:44:49;6.60;1.00
13074;DHT22;6603;47.066;15.396;2024-02-21T08:47:15;6.60;1.00
13074;DHT22;6603;47.066;15.396;2024-02-21T08:49:41;6.70;1.00
13074;DHT22;6603;47.066;15.396;2024-02-21T08:52:07;6.70;53.20
13074;DHT22;6603;47.066;15.396;2024-02-21T08:54:33;6.80;99.90
13074;DHT22;6603;47.066;15.396;2024-02-21T08:56:59;7.00;99.90
13074;DHT22;6603;47.066;15.396;2024-02-21T08:59:25;7.10;59.20
13074;DHT22;6603;47.066;15.396;2024-02-21T09:01:52;7.20;99.90
13074;DHT22;6603;47.066;15.396;2024-02-21T09:04:20;7.30;1.00
13074;DHT22;6603;47.066;15.396;2024-02-21T09:06:46;7.30;1.00
13074;DHT22;6603;47.066;15.396;2024-02-21T09:09:12;7.40;1.00
13074;DHT22;6603;47.066;15.396;2024-02-21T09:11:39;7.50;1.00
13074;DHT22;6603;47.066;15.396;2024-02-21T09:14:06;7.60;1.00
13074;DHT22;6603;47.066;15.396;2024-02-21T09:16:32;7.80;99.90
13074;DHT22;6603;47.066;15.396;2024-02-21T09:18:58;7.90;99.90
13074;DHT22;6603;47.066;15.396;2024-02-21T09:21:24;8.20;1.00
13074;DHT22;6603;47.066;15.396;2024-02-21T09:23:50;8.40;1.00
13074;DHT22;6603;47.066;15.396;2024-02-21T09:26:16;8.60;1.00
13074;DHT22;6603;47.066;15.396;2024-02-21T09:28:43;8.80;1.00
13074;DHT22;6603;47.066;15.396;2024-02-21T09:31:12;8.70;99.90
13074;DHT22;6603;47.066;15.396;2024-02-21T09:33:38;8.80;1.00
13074;DHT22;6603;47.066;15.396;2024-02-21T09:36:05;8.80;1.00
13074;DHT22;6603;47.066;15.396;2024-02-21T09:38:31;8.80;99.90
13074;DHT22;6603;47.066;15.396;2024-02-21T09:41:14;8.80;1.00
13074;DHT22;6603;47.066;15.396;2024-02-21T09:43:43;8.90;1.00
13074;DHT22;6603;47.066;15.396;2024-02-21T09:46:17;8.80;99.90
13074;DHT22;6603;47.066;15.396;2024-02-21T09:51:36;8.90;99.90
13074;DHT22;6603;47.066;15.396;2024-02-21T09:54:04;9.00;99.90
13074;DHT22;6603;47.066;15.396;2024-02-21T09:56:30;9.00;99.90
13074;DHT22;6603;47.066;15.396;2024-02-21T09:58:57;9.10;1.00
13074;DHT22;6603;47.066;15.396;2024-02-21T10:01:24;9.10;99.90
13074;DHT22;6603;47.066;15.396;2024-02-21T10:03:50;9.20;73.40
13074;DHT22;6603;47.066;15.396;2024-02-21T10:06:16;9.20;99.90
13074;DHT22;6603;47.066;15.396;2024-02-21T10:08:42;9.20;99.90
13074;DHT22;6603;47.066;15.396;2024-02-21T10:11:08;9.10;1.00
13074;DHT22;6603;47.066;15.396;2024-02-21T10:13:35;9.00;99.90
13074;DHT22;6603;47.066;15.396;2024-02-21T10:16:05;9.00;1.00
13074;DHT22;6603;47.066;15.396;2024-02-21T10:18:33;8.90;99.90
13074;DHT22;6603;47.066;15.396;2024-02-21T10:21:07;9.10;99.90
13074;DHT22;6603;47.066;15.396;2024-02-21T10:23:46;9.30;38.20
13074;DHT22;6603;47.066;15.396;2024-02-21T10:26:13;9.40;1.00
13074;DHT22;6603;47.066;15.396;2024-02-21T10:28:39;9.40;1.00
13074;DHT22;6603;47.066;15.396;2024-02-21T10:31:09;9.50;1.00
13074;DHT22;6603;47.066;15.396;2024-02-21T10:33:36;9.70;1.00
13074;DHT22;6603;47.066;15.396;2024-02-21T10:36:10;9.70;1.00
13074;DHT22;6603;47.066;15.396;2024-02-21T10:38:37;9.70;1.00
13074;DHT22;6603;47.066;15.396;2024-02-21T10:41:05;9.50;99.90
13074;DHT22;6603;47.066;15.396;2024-02-21T10:43:41;9.40;99.90
13074;DHT22;6603;47.066;15.396;2024-02-21T10:46:07;9.30;1.00
13074;DHT22;6603;47.066;15.396;2024-02-21T10:48:45;9.30;1.00
13074;DHT22;6603;47.066;15.396;2024-02-21T10:51:19;9.30;1.00
13074;DHT22;6603;47.066;15.396;2024-02-21T10:54:02;9.60;1.00
13074;DHT22;6603;47.066;15.396;2024-02-21T10:56:32;9.90;1.00
13074;DHT22;6603;47.066;15.396;2024-02-21T10:59:06;10.10;99.90
13074;DHT22;6603;47.066;15.396;2024-02-21T11:01:33;10.30;99.90
13074;DHT22;6603;47.066;15.396;2024-02-21T11:04:11;10.30;99.90
13074;DHT22;6603;47.066;15.396;2024-02-21T11:06:40;10.30;99.90
13074;DHT22;6603;47.066;15.396;2024-02-21T11:09:10;10.40;99.90
13074;DHT22;6603;47.066;15.396;2024-02-21T11:11:38;10.50;99.90
13074;DHT22;6603;47.066;15.396;2024-02-21T11:16:36;10.60;99.90
13074;DHT22;6603;47.066;15.396;2024-02-21T11:19:20;10.70;99.90
13074;DHT22;6603;47.066;15.396;2024-02-21T11:21:47;10.80;99.90
13074;DHT22;6603;47.066;15.396;2024-02-21T11:24:14;10.80;99.90
13074;DHT22;6603;47.066;15.396;2024-02-21T11:26:51;10.90;99.90
13074;DHT22;6603;47.066;15.396;2024-02-21T11:29:24;10.80;31.40
13074;DHT22;6603;47.066;15.396;2024-02-21T11:31:51;11.00;1.00
13074;DHT22;6603;47.066;15.396;2024-02-21T11:34:20;11.30;24.80
13074;DHT22;6603;47.066;15.396;2024-02-21T11:36:47;11.20;1.00
13074;DHT22;6603;47.066;15.396;2024-02-21T11:39:25;10.90;1.00
13074;DHT22;6603;47.066;15.396;2024-02-21T11:42:07;10.80;1.00
13074;DHT22;6603;47.066;15.396;2024-02-21T11:44:38;11.00;1.00
13074;DHT22;6603;47.066;15.396;2024-02-21T11:47:06;11.30;3.70
13074;DHT22;6603;47.066;15.396;2024-02-21T11:49:37;11.50;32.60
13074;DHT22;6603;47.066;15.396;2024-02-21T11:52:04;11.70;1.00
13074;DHT22;6603;47.066;15.396;2024-02-21T11:54:31;11.80;1.00
13074;DHT22;6603;47.066;15.396;2024-02-21T11:56:57;11.80;1.00
13074;DHT22;6603;47.066;15.396;2024-02-21T11:59:23;11.80;1.00
13074;DHT22;6603;47.066;15.396;2024-02-21T12:01:50;11.80;1.00
13074;DHT22;6603;47.066;15.396;2024-02-21T12:04:18;11.80;1.00
13074;DHT22;6603;47.066;15.396;2024-02-21T12:06:45;11.80;1.00
13074;DHT22;6603;47.066;15.396;2024-02-21T12:09:17;11.90;1.00
13074;DHT22;6603;47.066;15.396;2024-02-21T12:11:44;12.00;1.00
13074;DHT22;6603;47.066;15.396;2024-02-21T12:14:15;12.20;1.00
13074;DHT22;6603;47.066;15.396;2024-02-21T12:16:41;12.50;1.00
13074;DHT22;6603;47.066;15.396;2024-02-21T12:19:10;12.40;1.00
13074;DHT22;6603;47.066;15.396;2024-02-21T12:21:36;12.50;1.00
13074;DHT22;6603;47.066;15.396;2024-02-21T12:24:17;12.50;1.00
13074;DHT22;6603;47.066;15.396;2024-02-21T12:26:43;12.40;1.00
13074;DHT22;6603;47.066;15.396;2024-02-21T12:29:09;12.40;1.00
13074;DHT22;6603;47.066;15.396;2024-02-21T12:31:37;12.10;1.00
13074;DHT22;6603;47.066;15.396;2024-02-21T12:34:03;12.00;1.00
13074;DHT22;6603;47.066;15.396;2024-02-21T12:36:33;12.00;1.00
13074;DHT22;6603;47.066;15.396;2024-02-21T12:38:59;12.10;1.00
13074;DHT22;6603;47.066;15.396;2024-02-21T12:41:28;12.30;1.00
13074;DHT22;6603;47.066;15.396;2024-02-21T12:43:55;12.50;1.00
13074;DHT22;6603;47.066;15.396;2024-02-21T12:46:22;12.60;1.00
13074;DHT22;6603;47.066;15.396;2024-02-21T12:48:48;12.40;1.00
13074;DHT22;6603;47.066;15.396;2024-02-21T12:51:14;12.20;1.00
13074;DHT22;6603;47.066;15.396;2024-02-21T12:53:41;12.20;1.00
13074;DHT22;6603;47.066;15.396;2024-02-21T12:56:07;12.40;1.00
13074;DHT22;6603;47.066;15.396;2024-02-21T12:58:33;12.70;1.00
13074;DHT22;6603;47.066;15.396;2024-02-21T13:00:59;13.00;1.00
13074;DHT22;6603;47.066;15.396;2024-02-21T13:03:25;13.20;1.00
13074;DHT22;6603;47.066;15.396;2024-02-21T13:05:51;13.30;1.00
13074;DHT22;6603;47.066;15.396;2024-02-21T13:08:17;13.40;1.00
13074;DHT22;6603;47.066;15.396;2024-02-21T13:10:46;13.80;1.00
13074;DHT22;6603;47.066;15.396;2024-02-21T13:13:14;14.10;1.00
13074;DHT22;6603;47.066;15.396;2024-02-21T13:15:39;14.20;1.00
13074;DHT22;6603;47.066;15.396;2024-02-21T13:18:09;13.90;1.00
13074;DHT22;6603;47.066;15.396;2024-02-21T13:20:36;13.60;1.00
13074;DHT22;6603;47.066;15.396;2024-02-21T13:23:02;13.50;1.00
13074;DHT22;6603;47.066;15.396;2024-02-21T13:25:29;13.50;1.00
13074;DHT22;6603;47.066;15.396;2024-02-21T13:27:55;13.70;1.00
13074;DHT22;6603;47.066;15.396;2024-02-21T13:30:24;13.60;1.00
13074;DHT22;6603;47.066;15.396;2024-02-21T13:32:51;13.50;1.00
13074;DHT22;6603;47.066;15.396;2024-02-21T13:35:17;13.50;1.00
13074;DHT22;6603;47.066;15.396;2024-02-21T13:37:43;13.40;1.00
13074;DHT22;6603;47.066;15.396;2024-02-21T13:40:10;13.30;1.00
13074;DHT22;6603;47.066;15.396;2024-02-21T13:42:38;13.40;1.00
13074;DHT22;6603;47.066;15.396;2024-02-21T13:45:05;13.40;1.00
13074;DHT22;6603;47.066;15.396;2024-02-21T13:47:32;13.40;1.00
13074;DHT22;6603;47.066;15.396;2024-02-21T13:49:58;13.50;1.00
13074;DHT22;6603;47.066;15.396;2024-02-21T13:52:24;13.30;1.00
13074;DHT22;6603;47.066;15.396;2024-02-21T13:54:52;13.30;1.00
13074;DHT22;6603;47.066;15.396;2024-02-21T13:57:18;13.20;1.00
13074;DHT22;6603;47.066;15.396;2024-02-21T13:59:44;13.00;1.00
13074;DHT22;6603;47.066;15.396;2024-02-21T14:02:10;13.00;1.00
13074;DHT22;6603;47.066;15.396;2024-02-21T14:04:36;13.00;1.00
13074;DHT22;6603;47.066;15.396;2024-02-21T14:07:02;12.90;1.00
13074;DHT22;6603;47.066;15.396;2024-02-21T14:09:28;13.00;1.00
13074;DHT22;6603;47.066;15.396;2024-02-21T14:11:58;13.00;1.00
13074;DHT22;6603;47.066;15.396;2024-02-21T14:14:24;13.00;1.00
13074;DHT22;6603;47.066;15.396;2024-02-21T14:16:50;13.00;1.00
13074;DHT22;6603;47.066;15.396;2024-02-21T14:19:16;12.90;1.00
13074;DHT22;6603;47.066;15.396;2024-02-21T14:21:43;13.00;1.00
13074;DHT22;6603;47.066;15.396;2024-02-21T14:24:09;12.90;1.00
13074;DHT22;6603;47.066;15.396;2024-02-21T14:26:34;12.90;1.00
13074;DHT22;6603;47.066;15.396;2024-02-21T14:29:01;12.80;1.00
13074;DHT22;6603;47.066;15.396;2024-02-21T14:31:32;12.70;1.00
13074;DHT22;6603;47.066;15.396;2024-02-21T14:33:58;12.80;1.00
13074;DHT22;6603;47.066;15.396;2024-02-21T14:36:26;12.80;1.00
13074;DHT22;6603;47.066;15.396;2024-02-21T14:38:52;12.70;1.00
13074;DHT22;6603;47.066;15.396;2024-02-21T14:41:18;12.70;1.00
13074;DHT22;6603;47.066;15.396;2024-02-21T14:43:45;12.70;1.00
13074;DHT22;6603;47.066;15.396;2024-02-21T14:46:12;12.70;1.00
13074;DHT22;6603;47.066;15.396;2024-02-21T14:48:38;12.70;1.00
13074;DHT22;6603;47.066;15.396;2024-02-21T14:51:05;12.70;1.00
13074;DHT22;6603;47.066;15.396;2024-02-21T14:53:31;12.80;1.00
13074;DHT22;6603;47.066;15.396;2024-02-21T14:55:57;12.90;1.00
13074;DHT22;6603;47.066;15.396;2024-02-21T14:58:25;12.90;1.00
13074;DHT22;6603;47.066;15.396;2024-02-21T15:00:53;12.90;1.00
13074;DHT22;6603;47.066;15.396;2024-02-21T15:03:20;12.90;1.00
13074;DHT22;6603;47.066;15.396;2024-02-21T15:05:46;12.90;1.00
13074;DHT22;6603;47.066;15.396;2024-02-21T15:08:13;12.90;1.00
13074;DHT22;6603;47.066;15.396;2024-02-21T15:10:43;13.00;1.00
13074;DHT22;6603;47.066;15.396;2024-02-21T15:13:10;13.10;1.00
13074;DHT22;6603;47.066;15.396;2024-02-21T15:15:36;13.20;1.00
13074;DHT22;6603;47.066;15.396;2024-02-21T15:18:02;13.20;1.00
13074;DHT22;6603;47.066;15.396;2024-02-21T15:20:28;13.20;1.00
13074;DHT22;6603;47.066;15.396;2024-02-21T15:22:54;13.20;1.00
13074;DHT22;6603;47.066;15.396;2024-02-21T15:25:20;13.00;1.00
13074;DHT22;6603;47.066;15.396;2024-02-21T15:27:46;12.80;1.00
13074;DHT22;6603;47.066;15.396;2024-02-21T15:30:13;12.60;1.00
13074;DHT22;6603;47.066;15.396;2024-02-21T15:32:40;12.50;1.00
13074;DHT22;6603;47.066;15.396;2024-02-21T15:35:09;12.40;1.00
13074;DHT22;6603;47.066;15.396;2024-02-21T15:37:39;12.30;1.00
13074;DHT22;6603;47.066;15.396;2024-02-21T15:40:05;12.10;1.00
13074;DHT22;6603;47.066;15.396;2024-02-21T15:42:34;11.90;1.00
13074;DHT22;6603;47.066;15.396;2024-02-21T15:45:00;11.80;1.00
13074;DHT22;6603;47.066;15.396;2024-02-21T15:47:33;11.70;1.00
13074;DHT22;6603;47.066;15.396;2024-02-21T15:49:58;11.70;1.00
13074;DHT22;6603;47.066;15.396;2024-02-21T15:52:26;11.60;1.00
13074;DHT22;6603;47.066;15.396;2024-02-21T15:54:52;11.40;1.00
13074;DHT22;6603;47.066;15.396;2024-02-21T15:57:18;11.20;1.00
13074;DHT22;6603;47.066;15.396;2024-02-21T15:59:45;11.10;1.00